Time;durP1;ratioP1;P1;durP2;ratioP2;P2;SDS_P1;SDS_P2;PMS_P1;PMS_P2;Temp;Humidity;BMP_temperature;BMP_pressure;BME280_temperature;BME280_humidity;BME280_pressure;Samples;Min_cycle;Max_cycle;Signal;HPM_P1;HPM_P2
2021/09/13 00:01:56;;;;;;;10.40;6.80;;;14.80;88.50;;;;;;5054177;28;20385;-50
2021/09/13 00:04:21;;;;;;;9.63;6.25;;;14.80;88.20;;;;;;5053860;28;20041;-48
2021/09/13 00:06:47;;;;;;;8.30;5.57;;;14.70;88.20;;;;;;5054149;28;20105;-49
2021/09/13 00:09:12;;;;;;;9.63;5.72;;;14.70;88.40;;;;;;5054142;28;20388;-47
2021/09/13 00:11:38;;;;;;;8.68;5.65;;;14.60;88.40;;;;;;5054262;28;20060;-49
2021/09/13 00:14:04;;;;;;;10.60;5.95;;;14.70;88.40;;;;;;5053749;28;20021;-47
2021/09/13 00:16:29;;;;;;;8.30;5.32;;;14.70;88.40;;;;;;5053521;28;20021;-46
2021/09/13 00:18:55;;;;;;;10.15;5.13;;;14.60;88.30;;;;;;5053732;28;20024;-48
2021/09/13 00:21:20;;;;;;;7.30;5.50;;;14.60;88.60;;;;;;5053551;28;20472;-47
2021/09/13 00:23:46;;;;;;;7.72;5.05;;;14.60;88.60;;;;;;5053565;28;20070;-46
2021/09/13 00:26:12;;;;;;;10.65;5.57;;;14.60;88.50;;;;;;5053527;28;20025;-46
2021/09/13 00:28:37;;;;;;;11.70;5.70;;;14.60;88.60;;;;;;5053477;28;20028;-47
2021/09/13 00:31:03;;;;;;;10.95;6.30;;;14.60;88.50;;;;;;5053304;28;20025;-48
2021/09/13 00:33:28;;;;;;;12.90;5.97;;;14.50;88.60;;;;;;5053339;28;20025;-48
2021/09/13 00:35:54;;;;;;;8.43;6.32;;;14.40;88.50;;;;;;5053497;28;20052;-46
2021/09/13 00:38:20;;;;;;;12.70;7.88;;;14.40;88.50;;;;;;5053564;28;20029;-46
2021/09/13 00:40:45;;;;;;;10.50;6.80;;;14.30;88.80;;;;;;5053268;28;20032;-46
2021/09/13 00:43:11;;;;;;;11.25;7.20;;;14.20;89.20;;;;;;5053143;28;20036;-48
2021/09/13 00:45:37;;;;;;;12.45;8.48;;;14.20;89.60;;;;;;5053161;28;20115;-50
2021/09/13 00:48:03;;;;;;;20.38;10.88;;;14.20;89.80;;;;;;5052959;28;20509;-47
2021/09/13 00:50:29;;;;;;;10.45;8.05;;;14.20;89.80;;;;;;5053033;28;20440;-46
2021/09/13 00:52:55;;;;;;;9.80;8.02;;;14.30;89.60;;;;;;5053212;28;20025;-46
2021/09/13 00:55:22;;;;;;;11.77;8.15;;;14.30;89.80;;;;;;5052988;28;20079;-46
2021/09/13 00:57:53;;;;;;;12.68;9.70;;;14.20;89.90;;;;;;5052987;28;20026;-49
2021/09/13 01:00:19;;;;;;;13.52;8.27;;;14.30;90.00;;;;;;5052622;28;20029;-48
2021/09/13 01:02:45;;;;;;;12.77;7.25;;;14.30;90.00;;;;;;5052826;28;20047;-46
2021/09/13 01:05:11;;;;;;;13.73;9.15;;;14.30;89.90;;;;;;5052626;28;20041;-46
2021/09/13 01:07:37;;;;;;;14.00;10.27;;;14.30;89.90;;;;;;5052823;28;20157;-47
2021/09/13 01:10:04;;;;;;;11.68;9.10;;;14.20;90.00;;;;;;5052442;28;20108;-49
2021/09/13 01:12:30;;;;;;;11.18;9.43;;;14.10;90.10;;;;;;5052451;28;20025;-45
2021/09/13 01:14:56;;;;;;;12.93;9.27;;;14.00;90.50;;;;;;5052397;28;20057;-47
2021/09/13 01:17:21;;;;;;;18.75;10.00;;;14.00;90.90;;;;;;5052400;28;20064;-48
2021/09/13 01:19:47;;;;;;;14.38;10.98;;;14.00;91.10;;;;;;5052631;28;20025;-47
2021/09/13 01:22:16;;;;;;;12.35;9.07;;;14.00;91.20;;;;;;5052455;28;20446;-47
2021/09/13 01:24:41;;;;;;;13.15;10.48;;;14.00;91.20;;;;;;5052378;28;20025;-48
2021/09/13 01:27:09;;;;;;;17.95;10.32;;;13.90;91.20;;;;;;5052433;28;20047;-49
2021/09/13 01:29:36;;;;;;;12.93;9.90;;;13.90;91.00;;;;;;5054010;28;20029;-47
2021/09/13 01:32:02;;;;;;;12.35;10.02;;;13.80;91.20;;;;;;5056511;28;20040;-46
2021/09/13 01:34:28;;;;;;;12.65;10.45;;;13.80;91.40;;;;;;5056607;28;20029;-46
2021/09/13 01:36:54;;;;;;;16.52;12.05;;;13.90;91.50;;;;;;5056749;28;20118;-47
2021/09/13 01:39:20;;;;;;;14.43;10.00;;;13.90;91.50;;;;;;5056543;28;20052;-46
2021/09/13 01:41:46;;;;;;;18.92;12.57;;;13.90;91.40;;;;;;5056914;28;20025;-46
2021/09/13 01:44:13;;;;;;;20.30;12.88;;;13.90;91.40;;;;;;5056608;28;20115;-46
2021/09/13 01:46:40;;;;;;;14.77;11.40;;;13.90;91.40;;;;;;5056490;28;20405;-47
2021/09/13 01:49:07;;;;;;;18.20;13.13;;;13.90;91.20;;;;;;5056705;28;20057;-50
2021/09/13 01:51:33;;;;;;;20.50;11.35;;;13.90;91.10;;;;;;5056419;28;20354;-47
2021/09/13 01:53:59;;;;;;;14.98;12.23;;;13.90;91.00;;;;;;5055111;28;20119;-51
2021/09/13 01:56:24;;;;;;;14.40;11.20;;;13.80;91.20;;;;;;5056313;28;20021;-48
2021/09/13 01:58:50;;;;;;;14.88;10.65;;;13.80;91.40;;;;;;5056356;28;20384;-49
2021/09/13 02:01:18;;;;;;;15.52;10.43;;;13.80;91.40;;;;;;5056789;28;20090;-46
2021/09/13 02:03:43;;;;;;;15.60;8.80;;;13.80;91.40;;;;;;5056184;28;20056;-47
2021/09/13 02:06:09;;;;;;;13.35;9.68;;;13.70;91.30;;;;;;5056463;28;20064;-47
2021/09/13 02:08:35;;;;;;;11.35;8.20;;;13.70;91.20;;;;;;5056095;28;20021;-48
2021/09/13 02:11:00;;;;;;;17.30;8.80;;;13.70;91.00;;;;;;5056011;28;20036;-45
2021/09/13 02:13:26;;;;;;;13.20;8.18;;;13.60;90.90;;;;;;5056246;28;20071;-47
2021/09/13 02:15:52;;;;;;;18.33;10.30;;;13.60;90.90;;;;;;5055934;28;20044;-46
2021/09/13 02:18:17;;;;;;;9.98;7.38;;;13.60;90.90;;;;;;5055903;28;20028;-46
2021/09/13 02:20:43;;;;;;;11.18;7.85;;;13.50;90.90;;;;;;5055791;28;20036;-46
2021/09/13 02:23:08;;;;;;;15.48;9.63;;;13.50;90.90;;;;;;5055823;28;20056;-46
2021/09/13 02:25:34;;;;;;;10.80;7.70;;;13.50;90.90;;;;;;5055818;28;20021;-50
2021/09/13 02:28:00;;;;;;;10.70;7.88;;;13.50;91.00;;;;;;5055751;28;20033;-47
2021/09/13 02:30:25;;;;;;;11.73;7.63;;;13.50;90.90;;;;;;5054330;28;20496;-47
2021/09/13 02:32:51;;;;;;;10.18;8.05;;;13.50;90.90;;;;;;5055560;28;20053;-47
2021/09/13 02:35:17;;;;;;;10.38;8.20;;;13.50;90.80;;;;;;5054238;28;20056;-48
2021/09/13 02:37:42;;;;;;;14.00;8.13;;;13.50;91.00;;;;;;5055575;28;20032;-49
2021/09/13 02:40:09;;;;;;;10.02;8.38;;;13.50;90.90;;;;;;5055664;28;20059;-46
2021/09/13 02:42:35;;;;;;;12.27;8.43;;;13.50;91.00;;;;;;5055733;28;20419;-48
2021/09/13 02:45:01;;;;;;;11.57;8.02;;;13.50;90.90;;;;;;5055730;28;20496;-47
2021/09/13 02:47:26;;;;;;;12.20;8.10;;;13.50;90.80;;;;;;5055411;28;20076;-46
2021/09/13 02:49:52;;;;;;;13.95;7.80;;;13.50;90.90;;;;;;5055332;28;20103;-46
2021/09/13 02:52:17;;;;;;;13.05;8.25;;;13.50;90.90;;;;;;5055641;28;20033;-47
2021/09/13 02:54:43;;;;;;;14.02;8.15;;;13.40;90.80;;;;;;5053991;28;20025;-47
2021/09/13 02:57:09;;;;;;;11.32;7.53;;;13.40;90.80;;;;;;5055687;28;20377;-47
2021/09/13 02:59:34;;;;;;;10.55;7.75;;;13.40;90.70;;;;;;5055826;28;20493;-47
2021/09/13 03:02:00;;;;;;;14.82;8.18;;;13.40;90.70;;;;;;5055420;28;20125;-47
2021/09/13 03:04:26;;;;;;;8.80;7.15;;;13.30;90.60;;;;;;5055218;28;20032;-49
2021/09/13 03:06:51;;;;;;;10.88;7.57;;;13.30;90.70;;;;;;5055085;28;20112;-47
2021/09/13 03:09:17;;;;;;;12.43;7.90;;;13.30;90.70;;;;;;5055253;28;20048;-45
2021/09/13 03:11:43;;;;;;;10.77;7.30;;;13.30;90.80;;;;;;5055051;28;20079;-46
2021/09/13 03:14:09;;;;;;;8.88;7.22;;;13.30;90.90;;;;;;5054941;28;20043;-47
2021/09/13 03:16:35;;;;;;;9.15;7.20;;;13.30;90.80;;;;;;5054894;28;20484;-47
2021/09/13 03:19:00;;;;;;;14.18;8.77;;;13.30;90.80;;;;;;5055312;28;20025;-46
2021/09/13 03:21:26;;;;;;;11.55;8.13;;;13.20;90.80;;;;;;5053467;28;20120;-47
2021/09/13 03:23:52;;;;;;;9.30;7.03;;;13.20;90.60;;;;;;5053441;28;20108;-47
2021/09/13 03:26:17;;;;;;;15.02;10.00;;;13.10;90.50;;;;;;5054947;28;20025;-48
2021/09/13 03:28:43;;;;;;;10.45;7.78;;;13.00;90.60;;;;;;5054877;28;20047;-47
2021/09/13 03:31:08;;;;;;;8.00;6.88;;;13.00;90.80;;;;;;5054557;28;20477;-45
2021/09/13 03:33:34;;;;;;;9.10;7.32;;;13.00;90.80;;;;;;5054732;28;20024;-50
2021/09/13 03:36:01;;;;;;;10.68;7.47;;;12.90;90.80;;;;;;5054565;28;20025;-50
2021/09/13 03:38:27;;;;;;;8.40;6.60;;;12.80;90.80;;;;;;5054561;28;20033;-48
2021/09/13 03:40:52;;;;;;;9.63;6.93;;;12.80;90.80;;;;;;5054171;28;20032;-46
2021/09/13 03:43:18;;;;;;;9.15;7.25;;;12.80;90.70;;;;;;5054264;28;20021;-47
2021/09/13 03:45:44;;;;;;;12.15;7.90;;;12.90;90.60;;;;;;5054184;28;20124;-47
2021/09/13 03:48:09;;;;;;;11.38;7.95;;;12.80;90.50;;;;;;5054123;28;20123;-46
2021/09/13 03:50:35;;;;;;;10.98;7.13;;;12.80;90.50;;;;;;5054337;28;20029;-46
2021/09/13 03:53:01;;;;;;;9.77;6.80;;;12.80;90.40;;;;;;5053502;28;20036;-48
2021/09/13 03:55:26;;;;;;;10.15;7.32;;;12.80;90.60;;;;;;5054945;28;20020;-45
2021/09/13 03:57:52;;;;;;;13.73;8.80;;;12.70;90.50;;;;;;5053907;28;20418;-47
2021/09/13 04:00:18;;;;;;;12.13;8.15;;;12.70;90.60;;;;;;5054095;28;20032;-47
2021/09/13 04:02:46;;;;;;;12.05;7.25;;;12.60;91.00;;;;;;5054203;28;20036;-48
2021/09/13 04:05:17;;;;;;;8.02;6.80;;;12.60;91.20;;;;;;5053954;28;20121;-49
2021/09/13 04:10:29;;;;;;;9.45;7.07;;;12.60;91.20;;;;;;5054184;28;20033;-46
2021/09/13 04:12:55;;;;;;;10.40;7.45;;;12.70;91.30;;;;;;5053690;28;20017;-47
2021/09/13 04:15:21;;;;;;;9.68;7.40;;;12.80;91.10;;;;;;5053772;28;20032;-48
2021/09/13 04:17:46;;;;;;;13.55;7.70;;;12.80;91.00;;;;;;5052327;28;20017;-46
2021/09/13 04:20:12;;;;;;;17.05;9.05;;;12.80;91.00;;;;;;5053668;28;20025;-46
2021/09/13 04:22:38;;;;;;;44.17;12.63;;;12.80;91.10;;;;;;5053636;28;20029;-50
2021/09/13 04:25:05;;;;;;;10.85;6.97;;;12.80;91.10;;;;;;5053588;28;20036;-46
2021/09/13 04:27:31;;;;;;;9.82;7.47;;;12.80;90.80;;;;;;5053585;28;20059;-47
2021/09/13 04:29:58;;;;;;;14.30;7.82;;;12.70;90.50;;;;;;5053408;28;20119;-50
2021/09/13 04:32:23;;;;;;;10.93;7.63;;;12.50;90.40;;;;;;5053426;28;20024;-46
2021/09/13 04:34:49;;;;;;;8.82;7.30;;;12.50;90.50;;;;;;5053366;28;20029;-47
2021/09/13 04:37:15;;;;;;;12.35;6.70;;;12.60;90.50;;;;;;5053340;28;20025;-47
2021/09/13 04:39:41;;;;;;;11.50;6.85;;;12.50;90.60;;;;;;5051975;28;20029;-47
2021/09/13 04:42:07;;;;;;;8.48;7.03;;;12.60;90.70;;;;;;5053307;28;20079;-46
2021/09/13 04:44:33;;;;;;;11.23;7.22;;;12.60;90.30;;;;;;5053491;28;20475;-46
2021/09/13 04:46:58;;;;;;;9.18;6.82;;;12.60;90.50;;;;;;5052891;28;20078;-47
2021/09/13 04:49:24;;;;;;;10.93;7.35;;;12.60;90.50;;;;;;5052981;28;20025;-48
2021/09/13 04:51:51;;;;;;;9.63;7.50;;;12.60;90.00;;;;;;5053413;28;20021;-48
2021/09/13 04:54:16;;;;;;;12.70;8.52;;;12.60;90.20;;;;;;5053307;28;20438;-46
2021/09/13 04:56:42;;;;;;;10.55;7.85;;;12.60;90.40;;;;;;5053151;28;20099;-49
2021/09/13 04:59:10;;;;;;;11.57;7.70;;;12.60;90.30;;;;;;5052766;28;20018;-49
2021/09/13 05:01:36;;;;;;;15.82;6.65;;;12.60;90.30;;;;;;5052867;28;20068;-47
2021/09/13 05:04:03;;;;;;;10.88;7.50;;;12.60;90.30;;;;;;5052022;28;20032;-49
2021/09/13 05:06:29;;;;;;;9.00;7.30;;;12.60;90.20;;;;;;5053147;28;20104;-48
2021/09/13 05:08:55;;;;;;;8.32;6.80;;;12.60;90.40;;;;;;5051719;28;20163;-51
2021/09/13 05:11:21;;;;;;;9.43;7.30;;;12.60;90.30;;;;;;5052927;28;20107;-47
2021/09/13 05:13:46;;;;;;;12.20;7.53;;;12.60;90.30;;;;;;5052783;28;20095;-48
2021/09/13 05:16:12;;;;;;;12.75;7.53;;;12.60;90.40;;;;;;5051784;28;20029;-46
2021/09/13 05:18:37;;;;;;;11.70;7.55;;;12.70;90.20;;;;;;5052577;28;20098;-46
2021/09/13 05:21:04;;;;;;;9.02;7.68;;;12.60;90.20;;;;;;5053101;28;20479;-47
2021/09/13 05:23:30;;;;;;;10.35;7.47;;;12.60;90.20;;;;;;5051375;28;20546;-49
2021/09/13 05:25:55;;;;;;;9.80;7.30;;;12.60;90.10;;;;;;5051710;28;20029;-46
2021/09/13 05:28:22;;;;;;;11.85;7.00;;;12.60;89.80;;;;;;5051582;28;20083;-48
2021/09/13 05:30:49;;;;;;;11.88;7.70;;;12.40;90.00;;;;;;5051260;28;20473;-48
2021/09/13 05:33:16;;;;;;;9.18;7.05;;;12.40;90.30;;;;;;5052818;28;20051;-48
2021/09/13 05:35:42;;;;;;;8.63;7.50;;;12.30;90.40;;;;;;5052769;28;20064;-47
2021/09/13 05:38:09;;;;;;;10.57;8.15;;;12.40;90.30;;;;;;5052999;28;20032;-48
2021/09/13 05:40:35;;;;;;;12.57;7.32;;;12.30;90.50;;;;;;5052580;28;20465;-47
2021/09/13 05:43:04;;;;;;;9.40;7.32;;;12.40;90.50;;;;;;5052563;28;20108;-49
2021/09/13 05:45:30;;;;;;;12.52;7.50;;;12.50;90.40;;;;;;5052276;28;20029;-52
2021/09/13 05:47:56;;;;;;;13.40;7.82;;;12.60;90.20;;;;;;5052266;28;20049;-47
2021/09/13 05:50:21;;;;;;;10.93;8.18;;;12.60;90.00;;;;;;5052504;28;20361;-48
2021/09/13 05:52:47;;;;;;;9.50;7.78;;;12.70;89.80;;;;;;5055365;28;20028;-49
2021/09/13 05:55:13;;;;;;;13.73;8.15;;;12.80;89.60;;;;;;5056733;28;20071;-53
2021/09/13 05:57:39;;;;;;;11.82;7.38;;;12.70;89.40;;;;;;5059477;28;20021;-49
2021/09/13 06:00:07;;;;;;;14.60;8.13;;;12.80;89.20;;;;;;5051013;28;20047;-47
2021/09/13 06:02:32;;;;;;;8.82;7.15;;;12.70;89.20;;;;;;5052023;28;20033;-47
2021/09/13 06:04:58;;;;;;;11.35;8.00;;;12.80;89.20;;;;;;5052311;28;20040;-48
2021/09/13 06:07:24;;;;;;;14.35;7.55;;;12.90;88.90;;;;;;5052335;28;20056;-50
2021/09/13 06:09:50;;;;;;;11.90;7.65;;;13.10;88.60;;;;;;5051993;28;20040;-49
2021/09/13 06:12:16;;;;;;;14.82;8.13;;;13.10;88.50;;;;;;5050689;28;20032;-49
2021/09/13 06:14:43;;;;;;;11.30;7.07;;;13.30;88.30;;;;;;5051958;28;20029;-49
2021/09/13 06:17:10;;;;;;;10.20;7.47;;;13.30;88.20;;;;;;5055940;28;20017;-49
2021/09/13 06:19:35;;;;;;;16.00;8.02;;;13.50;87.90;;;;;;5056574;28;20032;-50
2021/09/13 06:22:01;;;;;;;9.60;7.90;;;13.60;87.20;;;;;;5055822;28;20468;-51
2021/09/13 06:24:27;;;;;;;13.65;9.10;;;13.60;86.90;;;;;;5055907;28;20024;-50
2021/09/13 06:26:52;;;;;;;14.43;8.95;;;13.70;87.20;;;;;;5055773;28;20067;-49
2021/09/13 06:29:18;;;;;;;15.68;9.40;;;13.70;87.30;;;;;;5055618;28;20025;-49
2021/09/13 06:31:44;;;;;;;16.40;9.10;;;13.90;87.50;;;;;;5055798;28;20469;-48
2021/09/13 06:34:15;;;;;;;12.85;9.18;;;14.00;87.30;;;;;;5056495;28;20025;-49
2021/09/13 06:36:41;;;;;;;10.60;8.65;;;14.20;87.50;;;;;;5056312;28;20469;-48
2021/09/13 06:39:06;;;;;;;13.50;9.50;;;14.30;87.50;;;;;;5055591;28;20032;-47
2021/09/13 06:41:32;;;;;;;15.43;10.23;;;14.40;87.30;;;;;;5055572;28;20428;-48
2021/09/13 06:43:58;;;;;;;22.90;9.60;;;14.50;87.10;;;;;;5054976;28;20020;-47
2021/09/13 06:48:59;;;;;;;17.77;9.98;;;14.30;87.30;;;;;;5055675;28;20025;-47
2021/09/13 06:51:25;;;;;;;13.80;8.65;;;14.30;87.60;;;;;;5055181;28;20033;-46
2021/09/13 06:53:50;;;;;;;13.52;8.68;;;14.30;87.60;;;;;;5054141;28;20036;-47
2021/09/13 06:56:16;;;;;;;10.98;8.65;;;14.40;87.50;;;;;;5055229;28;20024;-46
2021/09/13 06:58:42;;;;;;;11.32;9.00;;;14.70;86.80;;;;;;5055143;28;20469;-47
2021/09/13 07:01:07;;;;;;;13.20;8.75;;;14.60;86.60;;;;;;5054953;28;20406;-47
2021/09/13 07:03:34;;;;;;;16.92;9.00;;;14.50;87.40;;;;;;5054728;28;20059;-47
2021/09/13 07:06:00;;;;;;;8.57;7.25;;;14.70;87.70;;;;;;5053381;28;20029;-47
2021/09/13 07:08:26;;;;;;;15.27;7.75;;;15.00;86.70;;;;;;5054538;28;20104;-49
2021/09/13 07:10:52;;;;;;;15.23;7.65;;;15.00;86.40;;;;;;5054783;28;20132;-51
2021/09/13 07:13:17;;;;;;;18.17;8.35;;;15.20;86.10;;;;;;5054977;28;20056;-48
2021/09/13 07:15:45;;;;;;;9.30;6.35;;;15.20;86.10;;;;;;5053719;28;20021;-48
2021/09/13 07:18:13;;;;;;;9.50;7.38;;;15.40;85.90;;;;;;5054932;28;20052;-47
2021/09/13 07:20:39;;;;;;;9.82;6.45;;;15.70;84.90;;;;;;5054508;28;20071;-50
2021/09/13 07:23:05;;;;;;;12.63;5.88;;;15.90;83.50;;;;;;5053167;28;20036;-51
2021/09/13 07:25:31;;;;;;;23.38;7.88;;;15.80;84.00;;;;;;5054581;28;20445;-47
2021/09/13 07:27:57;;;;;;;13.45;6.90;;;15.90;83.80;;;;;;5053680;28;20449;-46
2021/09/13 07:30:26;;;;;;;11.40;6.28;;;15.90;84.10;;;;;;5054324;28;20036;-47
2021/09/13 07:32:53;;;;;;;9.73;4.80;;;16.20;82.20;;;;;;5054340;28;20480;-51
2021/09/13 07:35:18;;;;;;;8.38;3.25;;;16.30;82.00;;;;;;5053630;28;20044;-48
2021/09/13 07:37:44;;;;;;;4.55;2.08;;;16.00;81.90;;;;;;5053898;28;20021;-48
2021/09/13 07:40:11;;;;;;;9.73;2.60;;;16.20;81.70;;;;;;5053886;28;20032;-50
2021/09/13 07:42:38;;;;;;;5.05;3.13;;;16.50;80.50;;;;;;5054323;28;20040;-47
2021/09/13 07:45:05;;;;;;;7.15;4.00;;;16.30;81.10;;;;;;5053580;28;20036;-51
2021/09/13 07:47:31;;;;;;;10.30;4.20;;;16.40;81.60;;;;;;5053489;28;20433;-48
2021/09/13 07:49:57;;;;;;;8.60;2.88;;;16.60;81.20;;;;;;5052074;28;20109;-48
2021/09/13 07:52:23;;;;;;;10.88;2.67;;;16.80;79.00;;;;;;5053670;28;20110;-48
2021/09/13 07:54:49;;;;;;;12.07;3.03;;;16.70;79.70;;;;;;5053014;28;20052;-50
2021/09/13 07:57:14;;;;;;;6.47;2.90;;;17.10;78.90;;;;;;5053499;28;20052;-48
2021/09/13 07:59:40;;;;;;;10.60;2.70;;;17.40;78.00;;;;;;5053266;28;20032;-46
2021/09/13 08:02:06;;;;;;;6.68;2.70;;;17.30;77.10;;;;;;5053313;28;20028;-48
2021/09/13 08:04:31;;;;;;;9.50;2.80;;;17.30;77.70;;;;;;5052121;28;20358;-47
2021/09/13 08:06:57;;;;;;;6.43;2.95;;;17.10;78.00;;;;;;5053603;28;20021;-50
2021/09/13 08:09:23;;;;;;;3.80;1.98;;;17.50;77.10;;;;;;5053212;28;20029;-48
2021/09/13 08:11:48;;;;;;;8.80;2.63;;;17.90;75.40;;;;;;5053887;28;20029;-50
2021/09/13 08:14:14;;;;;;;5.85;1.50;;;18.00;74.80;;;;;;5053171;28;20040;-49
2021/09/13 08:16:40;;;;;;;8.63;2.15;;;18.00;74.50;;;;;;5053485;28;20104;-49
2021/09/13 08:19:05;;;;;;;6.63;1.15;;;17.90;73.80;;;;;;5053575;28;20440;-50
2021/09/13 08:21:33;;;;;;;9.35;1.58;;;17.70;74.00;;;;;;5053444;28;20033;-50
2021/09/13 08:23:59;;;;;;;6.45;2.28;;;18.10;74.40;;;;;;5053372;28;20017;-50
2021/09/13 08:26:28;;;;;;;6.38;1.13;;;19.00;70.30;;;;;;5053059;28;20541;-50
2021/09/13 08:28:53;;;;;;;2.38;0.88;;;20.00;66.20;;;;;;5052939;28;20029;-48
2021/09/13 08:31:19;;;;;;;4.63;1.27;;;19.50;66.10;;;;;;5052931;28;20055;-48
2021/09/13 08:33:45;;;;;;;2.60;1.17;;;19.00;66.80;;;;;;5052735;28;20466;-49
2021/09/13 08:36:11;;;;;;;3.33;1.30;;;20.10;64.00;;;;;;5052912;28;20021;-50
2021/09/13 08:38:36;;;;;;;10.82;1.50;;;20.40;61.60;;;;;;5052931;28;20025;-49
2021/09/13 08:41:03;;;;;;;3.65;0.85;;;20.60;59.40;;;;;;5052526;28;20029;-49
2021/09/13 08:43:29;;;;;;;2.50;1.10;;;20.60;58.70;;;;;;5052520;28;20040;-47
2021/09/13 08:46:06;;;;;;;2.80;1.13;;;20.80;58.00;;;;;;5052603;28;20025;-50
2021/09/13 08:53:51;;;;;;;4.13;1.23;;;22.30;55.20;;;;;;5053508;28;20025;-50
2021/09/13 08:56:17;;;;;;;4.20;1.08;;;22.60;54.40;;;;;;5051207;28;20055;-49
2021/09/13 08:58:44;;;;;;;6.40;1.15;;;23.10;52.70;;;;;;5052824;28;20021;-48
2021/09/13 09:01:13;;;;;;;4.13;1.10;;;21.80;55.80;;;;;;5052740;28;20029;-51
2021/09/13 09:03:42;;;;;;;2.07;1.07;;;21.80;56.60;;;;;;5052450;28;20047;-50
2021/09/13 09:06:27;;;;;;;13.80;2.67;;;21.40;57.30;;;;;;5052788;28;20303;-48
2021/09/13 09:08:59;;;;;;;4.88;3.28;;;22.00;53.90;;;;;;5051294;28;20025;-48
2021/09/13 09:11:25;;;;;;;5.93;2.65;;;21.70;55.50;;;;;;5051610;28;20036;-48
2021/09/13 09:13:50;;;;;;;5.35;2.88;;;20.90;58.30;;;;;;5052647;28;20095;-47
2021/09/13 09:16:16;;;;;;;8.25;3.58;;;22.30;54.60;;;;;;5052798;28;20052;-48
2021/09/13 09:18:47;;;;;;;10.65;3.65;;;23.50;51.00;;;;;;5052640;28;20100;-48
2021/09/13 09:21:25;;;;;;;8.30;3.97;;;24.30;48.90;;;;;;5050830;28;20029;-50
2021/09/13 09:24:06;;;;;;;7.13;3.70;;;24.80;47.60;;;;;;5052423;28;20036;-50
2021/09/13 09:26:32;;;;;;;6.07;3.58;;;24.00;49.60;;;;;;5051057;28;20116;-52
2021/09/13 09:29:00;;;;;;;12.30;6.80;;;24.30;49.50;;;;;;5052325;28;20033;-48
2021/09/13 09:31:36;;;;;;;9.38;7.22;;;24.30;48.90;;;;;;5052325;28;20025;-48
2021/09/13 09:34:16;;;;;;;12.13;6.05;;;23.00;52.20;;;;;;5052083;28;20028;-50
2021/09/13 09:36:57;;;;;;;11.20;7.57;;;23.30;52.00;;;;;;5051758;28;20032;-48
2021/09/13 09:39:49;;;;;;;9.30;6.10;;;24.30;48.20;;;;;;5052186;28;20076;-48
2021/09/13 09:42:34;;;;;;;10.75;6.60;;;24.10;49.10;;;;;;5052507;28;20492;-48
2021/09/13 09:45:02;;;;;;;10.25;7.50;;;23.10;50.50;;;;;;5052381;28;20021;-49
2021/09/13 09:47:28;;;;;;;10.48;6.97;;;22.70;51.10;;;;;;5050934;28;20400;-48
2021/09/13 09:49:56;;;;;;;8.57;6.55;;;22.60;51.90;;;;;;5053438;28;20100;-48
2021/09/13 09:52:36;;;;;;;13.80;8.25;;;22.80;51.10;;;;;;5055863;28;20496;-50
2021/09/13 09:55:11;;;;;;;13.82;8.35;;;22.70;51.40;;;;;;5056190;28;20392;-50
2021/09/13 09:57:38;;;;;;;12.38;10.00;;;23.70;48.50;;;;;;5056771;28;20106;-48
2021/09/13 10:00:27;;;;;;;13.60;9.30;;;24.80;45.10;;;;;;5054974;28;20025;-48
2021/09/13 10:02:53;;;;;;;14.60;9.30;;;24.90;44.40;;;;;;5054720;28;20047;-51
2021/09/13 10:05:24;;;;;;;9.65;8.30;;;25.20;43.70;;;;;;5056103;28;20035;-47
2021/09/13 10:07:51;;;;;;;11.15;8.98;;;24.80;44.10;;;;;;5056414;28;20036;-47
2021/09/13 10:10:22;;;;;;;4.57;3.85;;;24.90;44.20;;;;;;5054605;28;20064;-48
2021/09/13 10:12:48;;;;;;;8.85;3.65;;;25.20;42.40;;;;;;5056121;28;20331;-48
2021/09/13 10:15:15;;;;;;;7.00;3.35;;;25.40;41.80;;;;;;5055717;28;20381;-50
2021/09/13 10:17:41;;;;;;;3.55;2.45;;;25.60;41.60;;;;;;5055831;28;20024;-48
2021/09/13 10:20:08;;;;;;;7.97;2.92;;;25.10;41.40;;;;;;5055578;28;20025;-49
2021/09/13 10:22:36;;;;;;;2.83;2.55;;;24.30;43.70;;;;;;5055962;28;20321;-51
2021/09/13 10:25:03;;;;;;;2.65;1.73;;;24.50;43.90;;;;;;5055519;28;20017;-50
2021/09/13 10:27:38;;;;;;;2.58;1.25;;;24.50;41.80;;;;;;5056015;28;20045;-48
2021/09/13 10:30:21;;;;;;;3.85;1.70;;;23.80;43.70;;;;;;5055844;28;20037;-50
2021/09/13 10:32:49;;;;;;;1.92;1.70;;;23.20;45.40;;;;;;5055791;28;20049;-52
2021/09/13 10:35:16;;;;;;;2.75;1.60;;;23.10;45.30;;;;;;5054900;28;20029;-49
2021/09/13 10:37:50;;;;;;;2.42;1.75;;;23.10;45.50;;;;;;5053775;28;20082;-49
2021/09/13 10:40:21;;;;;;;3.42;2.53;;;22.80;44.60;;;;;;5055277;28;20466;-50
2021/09/13 10:42:48;;;;;;;2.25;2.03;;;22.10;46.40;;;;;;5055170;28;20423;-50
2021/09/13 10:45:39;;;;;;;2.35;1.30;;;22.30;46.00;;;;;;5054655;28;20048;-50
2021/09/13 10:48:09;;;;;;;2.55;1.73;;;22.50;46.40;;;;;;5054789;28;20098;-47
2021/09/13 10:50:49;;;;;;;3.28;1.55;;;23.30;44.50;;;;;;5054637;28;20029;-47
2021/09/13 10:53:17;;;;;;;4.28;1.73;;;24.40;42.40;;;;;;5054414;28;20064;-47
2021/09/13 10:55:44;;;;;;;3.97;1.80;;;24.30;42.10;;;;;;5054253;28;20116;-49
2021/09/13 10:58:34;;;;;;;4.43;1.20;;;24.60;41.70;;;;;;5052865;28;20025;-49
2021/09/13 11:01:03;;;;;;;0.77;0.73;;;25.40;38.20;;;;;;5053048;28;20033;-49
2021/09/13 11:03:31;;;;;;;1.70;1.60;;;25.20;37.10;;;;;;5053685;28;20101;-52
2021/09/13 11:06:06;;;;;;;4.22;1.00;;;24.50;38.80;;;;;;5053069;28;20025;-48
2021/09/13 11:08:38;;;;;;;1.30;0.50;;;25.10;36.50;;;;;;5054346;28;20025;-49
2021/09/13 11:11:20;;;;;;;2.15;1.13;;;24.80;37.20;;;;;;5054092;28;20025;-49
2021/09/13 11:13:54;;;;;;;1.27;0.70;;;25.80;37.20;;;;;;5054499;28;20049;-50
2021/09/13 11:16:20;;;;;;;2.38;1.13;;;26.00;36.90;;;;;;5054580;28;20373;-51
2021/09/13 11:18:47;;;;;;;3.17;1.13;;;26.80;35.80;;;;;;5054260;28;20028;-49
2021/09/13 11:21:27;;;;;;;2.30;1.85;;;25.50;37.20;;;;;;5054233;28;20029;-50
2021/09/13 11:24:02;;;;;;;2.17;1.15;;;25.20;39.20;;;;;;5053618;28;20029;-47
2021/09/13 11:26:32;;;;;;;7.88;2.15;;;24.90;38.50;;;;;;5053865;28;20481;-47
2021/09/13 11:29:18;;;;;;;;;;;24.50;38.50;;;;;;5054022;28;20040;-48
2021/09/13 11:31:54;;;;;;;4.50;1.08;;;25.20;37.40;;;;;;5053968;28;19908;-49
2021/09/13 11:34:22;;;;;;;2.97;1.38;;;23.90;41.00;;;;;;5053883;28;20127;-47
2021/09/13 11:37:12;;;;;;;3.80;2.05;;;22.60;45.00;;;;;;5053849;28;20100;-52
2021/09/13 11:39:48;;;;;;;3.78;1.33;;;23.20;43.90;;;;;;5052982;28;20025;-47
2021/09/13 11:42:16;;;;;;;3.42;1.73;;;24.30;41.70;;;;;;5053440;28;20043;-49
2021/09/13 11:44:47;;;;;;;4.78;1.63;;;24.40;43.60;;;;;;5053661;28;20104;-50
2021/09/13 11:47:15;;;;;;;3.55;1.75;;;24.70;44.00;;;;;;5053418;28;20090;-50
2021/09/13 11:49:44;;;;;;;3.05;1.60;;;23.30;47.00;;;;;;5053859;28;20032;-49
2021/09/13 11:52:29;;;;;;;9.57;2.13;;;23.30;48.10;;;;;;5053782;28;20044;-48
2021/09/13 11:55:00;;;;;;;7.15;2.22;;;24.80;44.50;;;;;;5051702;28;20028;-51
2021/09/13 11:57:29;;;;;;;3.53;2.42;;;25.60;42.30;;;;;;5053341;28;20025;-48
2021/09/13 11:59:56;;;;;;;3.92;1.60;;;25.30;42.80;;;;;;5053364;28;20403;-51
2021/09/13 12:02:22;;;;;;;3.38;1.98;;;25.80;40.80;;;;;;5052965;28;20036;-49
2021/09/13 12:04:49;;;;;;;2.05;1.50;;;25.40;41.20;;;;;;5052915;28;20477;-48
2021/09/13 12:07:15;;;;;;;4.13;1.80;;;25.00;42.30;;;;;;5053253;28;20032;-49
2021/09/13 12:09:43;;;;;;;7.63;2.03;;;25.20;41.20;;;;;;5051991;28;20029;-51
2021/09/13 12:12:13;;;;;;;2.95;1.88;;;25.30;40.40;;;;;;5053202;28;20025;-48
2021/09/13 12:14:40;;;;;;;3.03;1.77;;;25.20;40.60;;;;;;5053054;28;20473;-50
2021/09/13 12:17:09;;;;;;;6.88;1.60;;;25.00;41.20;;;;;;5053231;28;20048;-48
2021/09/13 12:19:36;;;;;;;6.00;2.13;;;25.70;40.00;;;;;;5051332;28;20027;-52
2021/09/13 12:22:03;;;;;;;3.80;1.40;;;25.30;40.90;;;;;;5052326;28;20031;-49
2021/09/13 12:24:30;;;;;;;5.70;2.47;;;25.70;39.30;;;;;;5052717;28;20036;-50
2021/09/13 12:26:56;;;;;;;4.00;2.38;;;26.10;38.50;;;;;;5052688;28;20025;-47
2021/09/13 12:29:22;;;;;;;2.75;2.03;;;26.40;37.70;;;;;;5052355;28;20036;-50
2021/09/13 12:31:47;;;;;;;5.50;2.30;;;26.40;37.60;;;;;;5052916;28;20025;-47
2021/09/13 12:34:13;;;;;;;3.03;1.88;;;26.40;37.60;;;;;;5052268;28;20032;-47
2021/09/13 12:36:39;;;;;;;5.35;2.60;;;26.00;38.70;;;;;;5052679;28;20071;-48
2021/09/13 12:39:09;;;;;;;5.57;2.63;;;26.30;37.80;;;;;;5052288;28;20029;-51
2021/09/13 12:41:43;;;;;;;4.53;1.50;;;26.90;37.30;;;;;;5052285;28;20326;-47
2021/09/13 12:44:23;;;;;;;6.13;2.22;;;26.70;36.60;;;;;;5052884;28;20024;-48
2021/09/13 12:46:54;;;;;;;4.45;1.83;;;26.20;37.50;;;;;;5052340;28;20493;-48
2021/09/13 12:49:21;;;;;;;2.47;1.83;;;25.80;38.20;;;;;;5052509;28;20021;-52
2021/09/13 12:51:56;;;;;;;2.75;1.45;;;24.70;40.30;;;;;;5052703;28;20439;-48
2021/09/13 12:54:33;;;;;;;4.22;1.73;;;24.40;41.10;;;;;;5052163;28;20032;-47